sensor_id;sensor_type;location;lat;lon;timestamp;P1;durP1;ratioP1;P2;durP2;ratioP2
44824;SDS011;30542;47.928;2.138;2023-05-21T00:01:27;1.37;;;1.27;;
44824;SDS011;30542;47.928;2.138;2023-05-21T00:06:28;1.23;;;1.08;;
44824;SDS011;30542;47.928;2.138;2023-05-21T00:11:29;1.00;;;0.90;;
44824;SDS011;30542;47.928;2.138;2023-05-21T00:16:29;0.88;;;0.88;;
44824;SDS011;30542;47.928;2.138;2023-05-21T00:21:30;0.93;;;0.83;;
44824;SDS011;30542;47.928;2.138;2023-05-21T00:26:30;1.13;;;1.02;;
44824;SDS011;30542;47.928;2.138;2023-05-21T00:31:30;1.83;;;0.97;;
44824;SDS011;30542;47.928;2.138;2023-05-21T00:36:31;0.80;;;0.80;;
44824;SDS011;30542;47.928;2.138;2023-05-21T00:41:33;1.00;;;0.90;;
44824;SDS011;30542;47.928;2.138;2023-05-21T00:46:34;1.15;;;1.05;;
44824;SDS011;30542;47.928;2.138;2023-05-21T00:51:35;1.20;;;1.10;;
44824;SDS011;30542;47.928;2.138;2023-05-21T00:56:35;1.50;;;1.40;;
44824;SDS011;30542;47.928;2.138;2023-05-21T01:01:36;2.03;;;0.77;;
44824;SDS011;30542;47.928;2.138;2023-05-21T01:06:36;0.90;;;0.90;;
44824;SDS011;30542;47.928;2.138;2023-05-21T01:11:37;1.20;;;1.10;;
44824;SDS011;30542;47.928;2.138;2023-05-21T01:16:40;0.85;;;0.85;;
44824;SDS011;30542;47.928;2.138;2023-05-21T01:21:48;1.00;;;1.00;;
44824;SDS011;30542;47.928;2.138;2023-05-21T01:26:51;1.25;;;1.15;;
44824;SDS011;30542;47.928;2.138;2023-05-21T01:32:13;1.20;;;1.10;;
44824;SDS011;30542;47.928;2.138;2023-05-21T01:37:29;1.42;;;0.90;;
44824;SDS011;30542;47.928;2.138;2023-05-21T01:42:35;1.38;;;0.93;;
44824;SDS011;30542;47.928;2.138;2023-05-21T01:47:42;0.88;;;0.85;;
44824;SDS011;30542;47.928;2.138;2023-05-21T01:52:54;1.42;;;1.33;;
44824;SDS011;30542;47.928;2.138;2023-05-21T01:57:59;1.10;;;0.82;;
44824;SDS011;30542;47.928;2.138;2023-05-21T02:03:00;0.73;;;0.73;;
44824;SDS011;30542;47.928;2.138;2023-05-21T02:08:00;1.33;;;0.90;;
44824;SDS011;30542;47.928;2.138;2023-05-21T02:13:01;1.33;;;1.20;;
44824;SDS011;30542;47.928;2.138;2023-05-21T02:18:01;1.40;;;1.30;;
44824;SDS011;30542;47.928;2.138;2023-05-21T02:23:02;0.88;;;0.88;;
44824;SDS011;30542;47.928;2.138;2023-05-21T02:28:02;1.63;;;0.90;;
44824;SDS011;30542;47.928;2.138;2023-05-21T02:33:03;0.82;;;0.82;;
44824;SDS011;30542;47.928;2.138;2023-05-21T02:38:03;0.70;;;0.70;;
44824;SDS011;30542;47.928;2.138;2023-05-21T02:43:04;1.13;;;1.07;;
44824;SDS011;30542;47.928;2.138;2023-05-21T02:48:04;1.00;;;1.00;;
44824;SDS011;30542;47.928;2.138;2023-05-21T02:53:05;1.27;;;1.20;;
44824;SDS011;30542;47.928;2.138;2023-05-21T02:58:06;1.75;;;1.05;;
44824;SDS011;30542;47.928;2.138;2023-05-21T03:03:06;1.07;;;1.07;;
44824;SDS011;30542;47.928;2.138;2023-05-21T03:08:06;1.30;;;1.20;;
44824;SDS011;30542;47.928;2.138;2023-05-21T03:13:07;1.00;;;1.00;;
44824;SDS011;30542;47.928;2.138;2023-05-21T03:18:07;0.83;;;0.83;;
44824;SDS011;30542;47.928;2.138;2023-05-21T03:23:08;0.90;;;0.90;;
44824;SDS011;30542;47.928;2.138;2023-05-21T03:28:08;1.10;;;1.00;;
44824;SDS011;30542;47.928;2.138;2023-05-21T03:33:09;0.70;;;0.70;;
44824;SDS011;30542;47.928;2.138;2023-05-21T03:38:10;1.02;;;0.93;;
44824;SDS011;30542;47.928;2.138;2023-05-21T03:43:10;0.73;;;0.73;;
44824;SDS011;30542;47.928;2.138;2023-05-21T03:48:10;0.97;;;0.90;;
44824;SDS011;30542;47.928;2.138;2023-05-21T03:53:11;1.33;;;1.23;;
44824;SDS011;30542;47.928;2.138;2023-05-21T03:58:11;0.70;;;0.70;;
44824;SDS011;30542;47.928;2.138;2023-05-21T04:03:11;0.80;;;0.80;;
44824;SDS011;30542;47.928;2.138;2023-05-21T04:08:12;0.93;;;0.90;;
44824;SDS011;30542;47.928;2.138;2023-05-21T04:13:12;0.90;;;0.90;;
44824;SDS011;30542;47.928;2.138;2023-05-21T04:18:13;0.60;;;0.60;;
44824;SDS011;30542;47.928;2.138;2023-05-21T04:23:15;1.48;;;1.00;;
44824;SDS011;30542;47.928;2.138;2023-05-21T04:28:16;1.10;;;1.00;;
44824;SDS011;30542;47.928;2.138;2023-05-21T04:33:19;1.17;;;0.90;;
44824;SDS011;30542;47.928;2.138;2023-05-21T04:38:20;0.80;;;0.80;;
44824;SDS011;30542;47.928;2.138;2023-05-21T04:43:20;0.97;;;0.97;;
44824;SDS011;30542;47.928;2.138;2023-05-21T04:48:24;1.02;;;1.02;;
44824;SDS011;30542;47.928;2.138;2023-05-21T04:53:28;1.05;;;0.80;;
44824;SDS011;30542;47.928;2.138;2023-05-21T04:58:28;0.80;;;0.80;;
44824;SDS011;30542;47.928;2.138;2023-05-21T05:03:31;1.00;;;1.00;;
44824;SDS011;30542;47.928;2.138;2023-05-21T05:08:32;0.80;;;0.80;;
44824;SDS011;30542;47.928;2.138;2023-05-21T05:13:33;0.70;;;0.70;;
44824;SDS011;30542;47.928;2.138;2023-05-21T05:18:34;1.23;;;1.13;;
44824;SDS011;30542;47.928;2.138;2023-05-21T05:23:35;1.00;;;1.00;;
44824;SDS011;30542;47.928;2.138;2023-05-21T05:28:35;0.90;;;0.90;;
44824;SDS011;30542;47.928;2.138;2023-05-21T05:33:36;0.90;;;0.90;;
44824;SDS011;30542;47.928;2.138;2023-05-21T05:38:36;1.30;;;1.27;;
44824;SDS011;30542;47.928;2.138;2023-05-21T05:43:36;0.90;;;0.90;;
44824;SDS011;30542;47.928;2.138;2023-05-21T05:48:37;1.23;;;1.17;;
44824;SDS011;30542;47.928;2.138;2023-05-21T05:53:37;0.90;;;0.90;;
44824;SDS011;30542;47.928;2.138;2023-05-21T05:58:37;0.83;;;0.83;;
44824;SDS011;30542;47.928;2.138;2023-05-21T06:03:38;0.95;;;0.95;;
44824;SDS011;30542;47.928;2.138;2023-05-21T06:08:38;1.23;;;1.13;;
44824;SDS011;30542;47.928;2.138;2023-05-21T06:13:39;1.10;;;1.10;;
44824;SDS011;30542;47.928;2.138;2023-05-21T06:18:39;0.90;;;0.63;;
44824;SDS011;30542;47.928;2.138;2023-05-21T06:23:40;1.13;;;1.03;;
44824;SDS011;30542;47.928;2.138;2023-05-21T06:28:40;1.08;;;0.98;;
44824;SDS011;30542;47.928;2.138;2023-05-21T06:33:41;1.20;;;0.93;;
44824;SDS011;30542;47.928;2.138;2023-05-21T06:38:41;1.00;;;0.90;;
44824;SDS011;30542;47.928;2.138;2023-05-21T06:43:41;0.90;;;0.90;;
44824;SDS011;30542;47.928;2.138;2023-05-21T06:48:42;1.00;;;0.97;;
44824;SDS011;30542;47.928;2.138;2023-05-21T06:53:43;1.05;;;1.00;;
44824;SDS011;30542;47.928;2.138;2023-05-21T06:58:43;0.83;;;0.83;;
44824;SDS011;30542;47.928;2.138;2023-05-21T07:03:44;1.30;;;1.20;;
44824;SDS011;30542;47.928;2.138;2023-05-21T07:08:44;1.13;;;1.13;;
44824;SDS011;30542;47.928;2.138;2023-05-21T07:13:45;1.67;;;0.90;;
44824;SDS011;30542;47.928;2.138;2023-05-21T07:18:45;0.97;;;0.97;;
44824;SDS011;30542;47.928;2.138;2023-05-21T07:23:45;0.95;;;0.82;;
44824;SDS011;30542;47.928;2.138;2023-05-21T07:28:46;0.83;;;0.83;;
44824;SDS011;30542;47.928;2.138;2023-05-21T07:33:46;1.00;;;1.00;;
44824;SDS011;30542;47.928;2.138;2023-05-21T07:38:46;1.40;;;1.10;;
44824;SDS011;30542;47.928;2.138;2023-05-21T07:43:47;1.10;;;1.00;;
44824;SDS011;30542;47.928;2.138;2023-05-21T07:48:47;1.05;;;1.05;;
44824;SDS011;30542;47.928;2.138;2023-05-21T07:53:48;0.98;;;0.98;;
44824;SDS011;30542;47.928;2.138;2023-05-21T07:58:49;1.90;;;1.08;;
44824;SDS011;30542;47.928;2.138;2023-05-21T08:03:49;1.40;;;1.30;;
44824;SDS011;30542;47.928;2.138;2023-05-21T08:08:49;1.27;;;1.10;;
44824;SDS011;30542;47.928;2.138;2023-05-21T08:13:50;1.13;;;1.03;;
44824;SDS011;30542;47.928;2.138;2023-05-21T08:18:50;1.40;;;1.00;;
44824;SDS011;30542;47.928;2.138;2023-05-21T08:23:51;1.13;;;1.13;;
44824;SDS011;30542;47.928;2.138;2023-05-21T08:28:52;1.30;;;1.20;;
44824;SDS011;30542;47.928;2.138;2023-05-21T08:33:52;1.15;;;1.13;;
44824;SDS011;30542;47.928;2.138;2023-05-21T08:38:55;0.90;;;0.90;;
44824;SDS011;30542;47.928;2.138;2023-05-21T08:43:55;1.27;;;1.10;;
44824;SDS011;30542;47.928;2.138;2023-05-21T08:49:00;0.95;;;0.95;;
44824;SDS011;30542;47.928;2.138;2023-05-21T08:54:01;1.10;;;1.08;;
44824;SDS011;30542;47.928;2.138;2023-05-21T08:59:04;1.33;;;1.23;;
44824;SDS011;30542;47.928;2.138;2023-05-21T09:04:04;1.13;;;1.13;;
44824;SDS011;30542;47.928;2.138;2023-05-21T09:09:22;1.40;;;1.10;;
44824;SDS011;30542;47.928;2.138;2023-05-21T09:14:31;1.00;;;1.00;;
44824;SDS011;30542;47.928;2.138;2023-05-21T09:19:32;1.30;;;1.20;;
44824;SDS011;30542;47.928;2.138;2023-05-21T09:24:32;1.40;;;1.30;;
44824;SDS011;30542;47.928;2.138;2023-05-21T09:29:32;1.00;;;1.00;;
44824;SDS011;30542;47.928;2.138;2023-05-21T09:34:34;1.52;;;1.42;;
44824;SDS011;30542;47.928;2.138;2023-05-21T09:39:35;1.88;;;1.50;;
44824;SDS011;30542;47.928;2.138;2023-05-21T09:44:41;1.60;;;1.50;;
44824;SDS011;30542;47.928;2.138;2023-05-21T09:49:43;1.42;;;1.33;;
44824;SDS011;30542;47.928;2.138;2023-05-21T09:54:43;1.23;;;1.10;;
44824;SDS011;30542;47.928;2.138;2023-05-21T09:59:43;1.17;;;1.07;;
44824;SDS011;30542;47.928;2.138;2023-05-21T10:04:44;1.23;;;1.15;;
44824;SDS011;30542;47.928;2.138;2023-05-21T10:09:47;1.30;;;1.20;;
44824;SDS011;30542;47.928;2.138;2023-05-21T10:15:04;1.48;;;1.38;;
44824;SDS011;30542;47.928;2.138;2023-05-21T10:20:09;1.58;;;1.48;;
44824;SDS011;30542;47.928;2.138;2023-05-21T10:25:11;1.13;;;1.13;;
44824;SDS011;30542;47.928;2.138;2023-05-21T10:30:12;1.50;;;1.40;;
44824;SDS011;30542;47.928;2.138;2023-05-21T10:35:14;1.38;;;1.30;;
44824;SDS011;30542;47.928;2.138;2023-05-21T10:40:16;1.60;;;1.50;;
44824;SDS011;30542;47.928;2.138;2023-05-21T10:45:37;1.30;;;1.20;;
44824;SDS011;30542;47.928;2.138;2023-05-21T10:56:17;1.60;;;1.50;;
44824;SDS011;30542;47.928;2.138;2023-05-21T11:01:25;1.48;;;1.38;;
44824;SDS011;30542;47.928;2.138;2023-05-21T11:06:28;1.52;;;1.42;;
44824;SDS011;30542;47.928;2.138;2023-05-21T11:11:48;1.40;;;1.30;;
44824;SDS011;30542;47.928;2.138;2023-05-21T11:17:15;1.50;;;1.40;;
44824;SDS011;30542;47.928;2.138;2023-05-21T11:27:29;1.50;;;1.40;;
44824;SDS011;30542;47.928;2.138;2023-05-21T11:32:36;1.58;;;1.48;;
44824;SDS011;30542;47.928;2.138;2023-05-21T11:37:38;1.65;;;1.55;;
44824;SDS011;30542;47.928;2.138;2023-05-21T11:42:40;1.80;;;1.70;;
44824;SDS011;30542;47.928;2.138;2023-05-21T11:47:43;1.67;;;1.58;;
44824;SDS011;30542;47.928;2.138;2023-05-21T11:52:43;1.67;;;1.58;;
44824;SDS011;30542;47.928;2.138;2023-05-21T11:57:44;1.55;;;1.45;;
44824;SDS011;30542;47.928;2.138;2023-05-21T12:02:49;1.63;;;1.52;;
44824;SDS011;30542;47.928;2.138;2023-05-21T12:07:50;1.70;;;1.60;;
44824;SDS011;30542;47.928;2.138;2023-05-21T12:12:51;1.60;;;1.50;;
44824;SDS011;30542;47.928;2.138;2023-05-21T12:17:51;1.60;;;1.50;;
44824;SDS011;30542;47.928;2.138;2023-05-21T12:22:51;1.53;;;1.43;;
44824;SDS011;30542;47.928;2.138;2023-05-21T12:27:52;1.30;;;1.30;;
44824;SDS011;30542;47.928;2.138;2023-05-21T12:32:57;1.60;;;1.50;;
44824;SDS011;30542;47.928;2.138;2023-05-21T12:38:01;1.50;;;1.40;;
44824;SDS011;30542;47.928;2.138;2023-05-21T12:43:02;2.17;;;2.08;;
44824;SDS011;30542;47.928;2.138;2023-05-21T12:48:04;1.50;;;1.40;;
44824;SDS011;30542;47.928;2.138;2023-05-21T12:53:07;1.77;;;1.67;;
44824;SDS011;30542;47.928;2.138;2023-05-21T12:58:11;1.63;;;1.52;;
44824;SDS011;30542;47.928;2.138;2023-05-21T13:03:12;1.85;;;1.75;;
44824;SDS011;30542;47.928;2.138;2023-05-21T13:08:13;1.35;;;1.25;;
44824;SDS011;30542;47.928;2.138;2023-05-21T13:13:15;1.48;;;1.38;;
44824;SDS011;30542;47.928;2.138;2023-05-21T13:18:16;1.48;;;1.38;;
44824;SDS011;30542;47.928;2.138;2023-05-21T13:23:16;1.40;;;1.30;;
44824;SDS011;30542;47.928;2.138;2023-05-21T13:28:16;1.33;;;1.23;;
44824;SDS011;30542;47.928;2.138;2023-05-21T13:33:17;2.03;;;1.92;;
44824;SDS011;30542;47.928;2.138;2023-05-21T13:38:17;1.48;;;1.38;;
44824;SDS011;30542;47.928;2.138;2023-05-21T13:43:18;1.77;;;1.67;;
44824;SDS011;30542;47.928;2.138;2023-05-21T13:48:18;1.40;;;1.40;;
44824;SDS011;30542;47.928;2.138;2023-05-21T13:53:18;1.87;;;1.77;;
44824;SDS011;30542;47.928;2.138;2023-05-21T13:58:19;1.50;;;1.40;;
44824;SDS011;30542;47.928;2.138;2023-05-21T14:03:19;1.67;;;1.57;;
44824;SDS011;30542;47.928;2.138;2023-05-21T14:08:20;1.80;;;1.70;;
44824;SDS011;30542;47.928;2.138;2023-05-21T14:13:22;1.88;;;1.77;;
44824;SDS011;30542;47.928;2.138;2023-05-21T14:18:22;1.87;;;1.77;;
44824;SDS011;30542;47.928;2.138;2023-05-21T14:23:23;1.85;;;1.75;;
44824;SDS011;30542;47.928;2.138;2023-05-21T14:28:23;1.60;;;1.50;;
44824;SDS011;30542;47.928;2.138;2023-05-21T14:33:23;1.60;;;1.50;;
44824;SDS011;30542;47.928;2.138;2023-05-21T14:38:23;1.77;;;1.67;;
44824;SDS011;30542;47.928;2.138;2023-05-21T14:43:24;1.73;;;1.63;;
44824;SDS011;30542;47.928;2.138;2023-05-21T14:48:25;1.43;;;1.33;;
44824;SDS011;30542;47.928;2.138;2023-05-21T14:53:25;1.70;;;1.60;;
44824;SDS011;30542;47.928;2.138;2023-05-21T14:58:25;1.67;;;1.57;;
44824;SDS011;30542;47.928;2.138;2023-05-21T15:03:26;3.00;;;1.93;;
44824;SDS011;30542;47.928;2.138;2023-05-21T15:08:26;3.53;;;2.55;;
44824;SDS011;30542;47.928;2.138;2023-05-21T15:13:26;5.97;;;3.57;;
44824;SDS011;30542;47.928;2.138;2023-05-21T15:18:27;5.50;;;4.65;;
44824;SDS011;30542;47.928;2.138;2023-05-21T15:23:28;5.70;;;4.82;;
44824;SDS011;30542;47.928;2.138;2023-05-21T15:28:28;5.73;;;5.10;;
44824;SDS011;30542;47.928;2.138;2023-05-21T15:33:29;5.80;;;5.00;;
44824;SDS011;30542;47.928;2.138;2023-05-21T15:38:29;5.87;;;5.20;;
44824;SDS011;30542;47.928;2.138;2023-05-21T15:43:30;5.10;;;4.70;;
44824;SDS011;30542;47.928;2.138;2023-05-21T15:48:30;7.57;;;4.97;;
44824;SDS011;30542;47.928;2.138;2023-05-21T15:53:30;6.15;;;4.45;;
44824;SDS011;30542;47.928;2.138;2023-05-21T15:58:30;5.57;;;4.80;;
44824;SDS011;30542;47.928;2.138;2023-05-21T16:03:31;5.53;;;5.00;;
44824;SDS011;30542;47.928;2.138;2023-05-21T16:08:31;5.90;;;5.30;;
44824;SDS011;30542;47.928;2.138;2023-05-21T16:13:31;4.60;;;4.30;;
44824;SDS011;30542;47.928;2.138;2023-05-21T16:18:32;4.87;;;4.47;;
44824;SDS011;30542;47.928;2.138;2023-05-21T16:23:32;4.80;;;4.37;;
44824;SDS011;30542;47.928;2.138;2023-05-21T16:28:33;4.93;;;4.53;;
44824;SDS011;30542;47.928;2.138;2023-05-21T16:33:33;5.20;;;4.70;;
44824;SDS011;30542;47.928;2.138;2023-05-21T16:38:34;3.93;;;3.63;;
44824;SDS011;30542;47.928;2.138;2023-05-21T16:43:34;4.87;;;4.37;;
44824;SDS011;30542;47.928;2.138;2023-05-21T16:48:36;4.45;;;4.10;;
44824;SDS011;30542;47.928;2.138;2023-05-21T16:53:38;4.55;;;4.22;;
44824;SDS011;30542;47.928;2.138;2023-05-21T16:58:38;4.10;;;3.80;;
44824;SDS011;30542;47.928;2.138;2023-05-21T17:03:38;5.17;;;4.67;;
44824;SDS011;30542;47.928;2.138;2023-05-21T17:08:39;4.37;;;3.97;;
44824;SDS011;30542;47.928;2.138;2023-05-21T17:13:41;5.13;;;4.70;;
44824;SDS011;30542;47.928;2.138;2023-05-21T17:18:41;4.33;;;4.03;;
44824;SDS011;30542;47.928;2.138;2023-05-21T17:23:42;4.90;;;4.20;;
44824;SDS011;30542;47.928;2.138;2023-05-21T17:28:42;3.97;;;3.60;;
44824;SDS011;30542;47.928;2.138;2023-05-21T17:33:42;5.13;;;4.63;;
44824;SDS011;30542;47.928;2.138;2023-05-21T17:38:43;5.17;;;4.73;;
44824;SDS011;30542;47.928;2.138;2023-05-21T17:43:43;5.57;;;5.03;;
44824;SDS011;30542;47.928;2.138;2023-05-21T17:48:44;4.40;;;4.10;;
44824;SDS011;30542;47.928;2.138;2023-05-21T17:53:45;4.20;;;3.80;;
44824;SDS011;30542;47.928;2.138;2023-05-21T17:58:45;4.95;;;4.43;;
44824;SDS011;30542;47.928;2.138;2023-05-21T18:03:46;4.80;;;4.37;;
44824;SDS011;30542;47.928;2.138;2023-05-21T18:08:46;4.40;;;4.10;;
44824;SDS011;30542;47.928;2.138;2023-05-21T18:13:47;5.07;;;4.57;;
44824;SDS011;30542;47.928;2.138;2023-05-21T18:18:48;5.30;;;4.72;;
44824;SDS011;30542;47.928;2.138;2023-05-21T18:23:48;5.23;;;4.57;;
44824;SDS011;30542;47.928;2.138;2023-05-21T18:28:48;5.83;;;5.00;;
44824;SDS011;30542;47.928;2.138;2023-05-21T18:33:49;5.83;;;4.70;;
44824;SDS011;30542;47.928;2.138;2023-05-21T18:38:50;4.72;;;4.32;;
44824;SDS011;30542;47.928;2.138;2023-05-21T18:43:51;4.50;;;4.20;;
44824;SDS011;30542;47.928;2.138;2023-05-21T18:48:51;6.85;;;4.47;;
44824;SDS011;30542;47.928;2.138;2023-05-21T18:53:51;5.77;;;4.60;;
44824;SDS011;30542;47.928;2.138;2023-05-21T18:58:53;5.27;;;4.50;;
44824;SDS011;30542;47.928;2.138;2023-05-21T19:03:53;5.13;;;4.65;;
44824;SDS011;30542;47.928;2.138;2023-05-21T19:08:53;4.83;;;4.40;;
44824;SDS011;30542;47.928;2.138;2023-05-21T19:13:54;5.60;;;4.50;;
44824;SDS011;30542;47.928;2.138;2023-05-21T19:18:54;4.63;;;4.17;;
44824;SDS011;30542;47.928;2.138;2023-05-21T19:23:55;5.43;;;4.20;;
44824;SDS011;30542;47.928;2.138;2023-05-21T19:28:55;5.83;;;4.03;;
44824;SDS011;30542;47.928;2.138;2023-05-21T19:33:56;4.77;;;4.37;;
44824;SDS011;30542;47.928;2.138;2023-05-21T19:38:56;4.43;;;4.13;;
44824;SDS011;30542;47.928;2.138;2023-05-21T19:43:57;4.35;;;3.95;;
44824;SDS011;30542;47.928;2.138;2023-05-21T19:48:58;3.93;;;3.63;;
44824;SDS011;30542;47.928;2.138;2023-05-21T19:53:58;5.17;;;3.77;;
44824;SDS011;30542;47.928;2.138;2023-05-21T19:58:58;4.82;;;4.18;;
44824;SDS011;30542;47.928;2.138;2023-05-21T20:03:59;4.78;;;4.35;;
44824;SDS011;30542;47.928;2.138;2023-05-21T20:08:59;4.10;;;3.80;;
44824;SDS011;30542;47.928;2.138;2023-05-21T20:14:00;4.30;;;3.90;;
44824;SDS011;30542;47.928;2.138;2023-05-21T20:19:01;4.60;;;4.05;;
44824;SDS011;30542;47.928;2.138;2023-05-21T20:24:02;4.15;;;3.78;;
44824;SDS011;30542;47.928;2.138;2023-05-21T20:29:03;4.25;;;3.90;;
44824;SDS011;30542;47.928;2.138;2023-05-21T20:34:05;3.78;;;3.47;;
44824;SDS011;30542;47.928;2.138;2023-05-21T20:39:09;4.30;;;3.83;;
44824;SDS011;30542;47.928;2.138;2023-05-21T20:44:10;3.88;;;3.50;;
44824;SDS011;30542;47.928;2.138;2023-05-21T20:49:12;4.18;;;3.80;;
44824;SDS011;30542;47.928;2.138;2023-05-21T20:54:14;3.97;;;3.63;;
44824;SDS011;30542;47.928;2.138;2023-05-21T20:59:14;3.50;;;3.20;;
44824;SDS011;30542;47.928;2.138;2023-05-21T21:04:14;3.30;;;3.10;;
44824;SDS011;30542;47.928;2.138;2023-05-21T21:09:15;4.05;;;3.75;;
44824;SDS011;30542;47.928;2.138;2023-05-21T21:14:15;3.38;;;3.17;;
44824;SDS011;30542;47.928;2.138;2023-05-21T21:19:15;3.80;;;3.50;;
44824;SDS011;30542;47.928;2.138;2023-05-21T21:24:17;3.35;;;3.05;;
44824;SDS011;30542;47.928;2.138;2023-05-21T21:29:17;3.80;;;3.20;;
44824;SDS011;30542;47.928;2.138;2023-05-21T21:34:19;3.93;;;3.53;;
44824;SDS011;30542;47.928;2.138;2023-05-21T21:39:20;3.60;;;3.30;;
44824;SDS011;30542;47.928;2.138;2023-05-21T21:44:20;3.43;;;3.10;;
44824;SDS011;30542;47.928;2.138;2023-05-21T21:49:21;3.47;;;3.28;;
44824;SDS011;30542;47.928;2.138;2023-05-21T21:54:21;3.27;;;2.97;;
44824;SDS011;30542;47.928;2.138;2023-05-21T21:59:21;3.37;;;3.17;;
44824;SDS011;30542;47.928;2.138;2023-05-21T22:04:22;3.00;;;2.80;;
44824;SDS011;30542;47.928;2.138;2023-05-21T22:09:22;3.60;;;3.30;;
44824;SDS011;30542;47.928;2.138;2023-05-21T22:14:23;3.43;;;3.00;;
44824;SDS011;30542;47.928;2.138;2023-05-21T22:19:23;3.53;;;3.33;;
44824;SDS011;30542;47.928;2.138;2023-05-21T22:24:23;3.13;;;2.90;;
44824;SDS011;30542;47.928;2.138;2023-05-21T22:29:25;3.40;;;3.20;;
44824;SDS011;30542;47.928;2.138;2023-05-21T22:34:25;3.57;;;3.37;;
44824;SDS011;30542;47.928;2.138;2023-05-21T22:39:26;3.70;;;3.27;;
44824;SDS011;30542;47.928;2.138;2023-05-21T22:44:26;3.20;;;3.00;;
44824;SDS011;30542;47.928;2.138;2023-05-21T22:49:26;3.90;;;3.60;;
44824;SDS011;30542;47.928;2.138;2023-05-21T22:54:27;3.70;;;3.37;;
44824;SDS011;30542;47.928;2.138;2023-05-21T22:59:27;3.90;;;3.60;;
44824;SDS011;30542;47.928;2.138;2023-05-21T23:04:29;3.60;;;3.30;;
44824;SDS011;30542;47.928;2.138;2023-05-21T23:09:32;3.38;;;3.17;;
44824;SDS011;30542;47.928;2.138;2023-05-21T23:14:33;3.17;;;2.90;;
44824;SDS011;30542;47.928;2.138;2023-05-21T23:19:33;3.50;;;3.20;;
44824;SDS011;30542;47.928;2.138;2023-05-21T23:24:33;3.67;;;3.37;;
44824;SDS011;30542;47.928;2.138;2023-05-21T23:29:35;3.35;;;2.55;;
44824;SDS011;30542;47.928;2.138;2023-05-21T23:34:35;2.93;;;2.73;;
44824;SDS011;30542;47.928;2.138;2023-05-21T23:39:35;3.23;;;3.03;;
44824;SDS011;30542;47.928;2.138;2023-05-21T23:44:36;3.47;;;3.27;;
44824;SDS011;30542;47.928;2.138;2023-05-21T23:49:36;3.30;;;3.10;;
44824;SDS011;30542;47.928;2.138;2023-05-21T23:54:36;3.57;;;3.33;;
44824;SDS011;30542;47.928;2.138;2023-05-21T23:59:37;2.87;;;2.67;;
